createdAt,value
2023-11-24T00:00:54.402Z,7.07
2023-11-24T00:01:54.335Z,7.05
2023-11-24T00:02:54.295Z,7.05
2023-11-24T00:03:54.333Z,7.05
2023-11-24T00:04:54.229Z,7.05
2023-11-24T00:05:54.272Z,7.02
2023-11-24T00:06:54.285Z,7.03
2023-11-24T00:07:54.238Z,6.98
2023-11-24T00:08:54.196Z,6.97
2023-11-24T00:09:54.223Z,6.95
2023-11-24T00:10:54.224Z,6.97
2023-11-24T00:11:54.168Z,6.94
2023-11-24T00:12:54.166Z,6.92
2023-11-24T00:13:54.129Z,6.89
2023-11-24T00:14:54.124Z,6.94
2023-11-24T00:15:54.163Z,6.88
2023-11-24T00:16:54.196Z,6.87
2023-11-24T00:17:57.266Z,6.84
2023-11-24T00:18:54.143Z,6.84
2023-11-24T00:19:54.075Z,6.85
2023-11-24T00:20:54.062Z,6.80
2023-11-24T00:21:54.149Z,6.87
2023-11-24T00:22:54.063Z,6.81
2023-11-24T00:23:54.088Z,6.80
2023-11-24T00:24:54.084Z,6.79
2023-11-24T00:25:54.007Z,6.80
2023-11-24T00:26:54.085Z,6.79
2023-11-24T00:27:54.017Z,6.76
2023-11-24T00:28:53.985Z,6.77
2023-11-24T00:29:53.971Z,6.77
2023-11-24T00:30:53.988Z,6.77
2023-11-24T00:31:53.945Z,6.76
2023-11-24T00:32:54.001Z,6.76
2023-11-24T00:33:54.097Z,6.74
2023-11-24T00:34:53.942Z,6.73
2023-11-24T00:35:53.921Z,6.74
2023-11-24T00:36:54.011Z,6.73
2023-11-24T00:37:53.903Z,6.71
2023-11-24T00:38:53.877Z,6.71
2023-11-24T00:39:53.905Z,6.66
2023-11-24T00:40:53.863Z,6.69
2023-11-24T00:41:53.845Z,6.70
2023-11-24T00:42:53.978Z,6.69
2023-11-24T00:43:53.827Z,6.69
2023-11-24T00:44:53.848Z,6.67
2023-11-24T00:45:53.817Z,6.66
2023-11-24T00:46:53.861Z,6.70
2023-11-24T00:47:53.832Z,6.66
2023-11-24T00:48:53.832Z,6.66
2023-11-24T00:49:53.768Z,6.67
2023-11-24T00:50:53.779Z,6.66
2023-11-24T00:51:53.826Z,6.69
2023-11-24T00:52:53.812Z,6.62
2023-11-24T00:53:53.745Z,6.61
2023-11-24T00:54:53.747Z,6.61
2023-11-24T00:55:53.690Z,6.61
2023-11-24T00:56:53.690Z,6.58
2023-11-24T00:57:53.744Z,6.59
2023-11-24T00:58:53.680Z,6.64
2023-11-24T00:59:53.659Z,6.59
2023-11-24T01:00:53.653Z,6.58
2023-11-24T01:01:53.724Z,6.54
2023-11-24T01:02:53.672Z,6.54
2023-11-24T01:03:53.749Z,6.55
2023-11-24T01:04:53.694Z,6.55
2023-11-24T01:05:53.606Z,6.58
2023-11-24T01:06:53.658Z,6.55
2023-11-24T01:07:53.584Z,6.58
2023-11-24T01:08:53.575Z,6.55
2023-11-24T01:09:53.630Z,6.51
2023-11-24T01:10:53.562Z,6.55
2023-11-24T01:11:53.549Z,6.54
2023-11-24T01:12:53.586Z,6.54
2023-11-24T01:13:53.514Z,6.55
2023-11-24T01:14:53.486Z,6.55
2023-11-24T01:15:53.572Z,6.52
2023-11-24T01:16:53.586Z,6.51
2023-11-24T01:17:53.537Z,6.49
2023-11-24T01:18:53.497Z,6.46
2023-11-24T01:19:53.481Z,6.48
2023-11-24T01:20:53.442Z,6.44
2023-11-24T01:21:53.484Z,6.49
2023-11-24T01:22:53.422Z,6.48
2023-11-24T01:23:53.962Z,6.49
2023-11-24T01:24:53.491Z,6.52
2023-11-24T01:25:53.406Z,6.52
2023-11-24T01:26:53.358Z,6.46
2023-11-24T01:27:53.416Z,6.49
2023-11-24T01:28:53.358Z,6.49
2023-11-24T01:29:53.367Z,6.56
2023-11-24T01:30:55.873Z,6.51
2023-11-24T01:31:53.316Z,6.49
2023-11-24T01:32:53.351Z,6.54
2023-11-24T01:33:53.383Z,6.56
2023-11-24T01:34:53.313Z,6.56
2023-11-24T01:35:53.290Z,6.54
2023-11-24T01:36:53.434Z,6.55
2023-11-24T01:37:53.282Z,6.52
2023-11-24T01:38:53.276Z,6.49
2023-11-24T01:39:53.270Z,6.52
2023-11-24T01:40:53.247Z,6.54
2023-11-24T01:41:53.241Z,6.51
2023-11-24T01:42:53.242Z,6.44
2023-11-24T01:43:53.218Z,6.43
2023-11-24T01:44:53.198Z,6.40
2023-11-24T01:45:53.319Z,6.33
2023-11-24T01:46:53.234Z,6.31
2023-11-24T01:47:53.170Z,6.22
2023-11-24T01:48:53.194Z,6.11
2023-11-24T01:49:53.138Z,6.06
2023-11-24T01:50:53.141Z,5.97
2023-11-24T01:51:53.171Z,5.89
2023-11-24T01:52:53.148Z,5.75
2023-11-24T01:53:53.131Z,5.65
2023-11-24T01:54:53.139Z,5.49
2023-11-24T01:55:53.096Z,5.38
2023-11-24T01:56:53.080Z,5.17
2023-11-24T01:57:53.093Z,5.10
2023-11-24T01:58:53.078Z,5.04
2023-11-24T01:59:53.067Z,4.96
2023-11-24T02:00:53.067Z,4.85
2023-11-24T02:01:53.097Z,4.69
2023-11-24T02:02:53.087Z,4.65
2023-11-24T02:03:53.244Z,4.59
2023-11-24T02:04:52.975Z,4.60
2023-11-24T02:05:52.963Z,4.51
2023-11-24T02:06:53.014Z,4.45
2023-11-24T02:07:52.981Z,4.45
2023-11-24T02:08:52.955Z,4.42
2023-11-24T02:09:52.989Z,4.37
2023-11-24T02:10:52.905Z,4.34
2023-11-24T02:11:52.927Z,4.33
2023-11-24T02:12:52.949Z,4.36
2023-11-24T02:13:53.046Z,4.29
2023-11-24T02:14:52.890Z,4.24
2023-11-24T02:15:54.665Z,4.23
2023-11-24T02:16:52.919Z,4.26
2023-11-24T02:17:52.908Z,4.24
2023-11-24T02:18:52.866Z,4.24
2023-11-24T02:19:52.855Z,4.22
2023-11-24T02:20:52.820Z,4.22
2023-11-24T02:21:52.842Z,4.18
2023-11-24T02:22:52.782Z,4.15
2023-11-24T02:23:52.795Z,4.12
2023-11-24T02:24:52.802Z,4.11
2023-11-24T02:25:52.753Z,4.09
2023-11-24T02:26:52.806Z,4.12
2023-11-24T02:27:52.755Z,4.12
2023-11-24T02:28:52.731Z,4.11
2023-11-24T02:29:52.726Z,4.06
2023-11-24T02:30:52.783Z,4.08
2023-11-24T02:31:52.754Z,4.08
2023-11-24T02:32:52.723Z,4.08
2023-11-24T02:33:52.691Z,4.08
2023-11-24T02:34:52.672Z,4.05
2023-11-24T02:35:52.674Z,4.05
2023-11-24T02:36:52.654Z,4.06
2023-11-24T02:37:52.652Z,4.04
2023-11-24T02:38:52.646Z,4.08
2023-11-24T02:39:52.627Z,4.08
2023-11-24T02:40:52.584Z,4.05
2023-11-24T02:41:52.599Z,4.06
2023-11-24T02:42:52.618Z,4.04
2023-11-24T02:43:52.620Z,4.05
2023-11-24T02:44:52.564Z,4.08
2023-11-24T02:45:52.550Z,4.06
2023-11-24T02:46:52.529Z,4.08
2023-11-24T02:47:52.600Z,4.11
2023-11-24T02:48:52.581Z,4.09
2023-11-24T02:49:52.556Z,4.08
2023-11-24T02:50:52.483Z,4.11
2023-11-24T02:51:52.516Z,4.08
2023-11-24T02:52:52.468Z,4.11
2023-11-24T02:53:52.477Z,4.08
2023-11-24T02:54:52.482Z,4.11
2023-11-24T02:55:52.432Z,4.14
2023-11-24T02:56:52.422Z,4.16
2023-11-24T02:57:52.436Z,4.14
2023-11-24T02:58:52.410Z,4.14
2023-11-24T02:59:52.388Z,4.20
2023-11-24T03:00:52.478Z,4.20
2023-11-24T03:01:52.393Z,4.18
2023-11-24T03:02:52.366Z,4.18
2023-11-24T03:03:52.406Z,4.24
2023-11-24T03:04:52.396Z,4.29
2023-11-24T03:05:52.308Z,4.27
2023-11-24T03:06:52.390Z,4.27
2023-11-24T03:07:52.328Z,4.27
2023-11-24T03:08:52.299Z,4.27
2023-11-24T03:09:52.320Z,4.29
2023-11-24T03:10:52.293Z,4.27
2023-11-24T03:11:52.282Z,4.29
2023-11-24T03:12:52.270Z,4.27
2023-11-24T03:13:52.233Z,4.30
2023-11-24T03:14:52.220Z,4.32
2023-11-24T03:15:52.288Z,4.36
2023-11-24T03:16:52.347Z,4.32
2023-11-24T03:17:52.303Z,4.34
2023-11-24T03:18:52.263Z,4.33
2023-11-24T03:19:52.204Z,4.40
2023-11-24T03:20:52.206Z,4.34
2023-11-24T03:21:52.242Z,4.30
2023-11-24T03:22:52.156Z,4.33
2023-11-24T03:23:52.139Z,4.34
2023-11-24T03:24:52.201Z,4.34
2023-11-24T03:25:52.123Z,4.34
2023-11-24T03:26:52.099Z,4.37
2023-11-24T03:27:52.134Z,4.36
2023-11-24T03:28:52.088Z,4.36
2023-11-24T03:29:52.191Z,4.32
2023-11-24T03:30:52.140Z,4.36
2023-11-24T03:31:52.051Z,4.37
2023-11-24T03:32:52.085Z,4.32
2023-11-24T03:33:52.118Z,4.36
2023-11-24T03:34:52.066Z,4.33
2023-11-24T03:35:52.038Z,4.33
2023-11-24T03:36:52.066Z,4.36
2023-11-24T03:37:51.991Z,4.40
2023-11-24T03:38:52.002Z,4.41
2023-11-24T03:39:52.088Z,4.44
2023-11-24T03:40:51.980Z,4.44
2023-11-24T03:41:51.957Z,4.47
2023-11-24T03:42:51.986Z,4.45
2023-11-24T03:43:51.971Z,4.47
2023-11-24T03:44:52.035Z,4.52
2023-11-24T03:45:52.022Z,4.52
2023-11-24T03:46:52.038Z,4.52
2023-11-24T03:47:52.119Z,4.55
2023-11-24T03:48:51.988Z,4.58
2023-11-24T03:49:51.965Z,4.60
2023-11-24T03:50:51.938Z,4.63
2023-11-24T03:51:51.990Z,4.60
2023-11-24T03:52:52.016Z,4.62
2023-11-24T03:53:51.993Z,4.66
2023-11-24T03:54:52.043Z,4.62
2023-11-24T03:55:51.841Z,4.66
2023-11-24T03:56:51.959Z,4.70
2023-11-24T03:57:51.879Z,4.72
2023-11-24T03:58:51.826Z,4.73
2023-11-24T03:59:51.750Z,4.70
2023-11-24T04:00:51.814Z,4.70
2023-11-24T04:01:51.990Z,4.77
2023-11-24T04:02:51.712Z,4.75
2023-11-24T04:03:51.755Z,4.77
2023-11-24T04:04:51.730Z,4.73
2023-11-24T04:05:51.694Z,4.70
2023-11-24T04:06:51.689Z,4.70
2023-11-24T04:07:51.655Z,4.66
2023-11-24T04:08:51.670Z,4.66
2023-11-24T04:09:51.705Z,4.66
2023-11-24T04:10:51.649Z,4.63
2023-11-24T04:11:51.628Z,4.65
2023-11-24T04:12:51.623Z,4.63
2023-11-24T04:13:51.598Z,4.65
2023-11-24T04:14:51.584Z,4.59
2023-11-24T04:15:51.597Z,4.62
2023-11-24T04:16:51.619Z,4.66
2023-11-24T04:17:51.578Z,4.63
2023-11-24T04:18:51.629Z,4.63
2023-11-24T04:19:51.534Z,4.65
2023-11-24T04:20:51.520Z,4.62
2023-11-24T04:21:51.532Z,4.63
2023-11-24T04:22:51.494Z,4.66
2023-11-24T04:23:51.461Z,4.66
2023-11-24T04:24:51.516Z,4.70
2023-11-24T04:25:51.456Z,4.73
2023-11-24T04:26:51.511Z,4.72
2023-11-24T04:27:51.498Z,4.72
2023-11-24T04:28:52.113Z,4.80
2023-11-24T04:29:51.456Z,4.77
2023-11-24T04:30:51.453Z,4.75
2023-11-24T04:31:51.402Z,4.78
2023-11-24T04:32:51.404Z,4.80
2023-11-24T04:33:51.383Z,4.80
2023-11-24T04:34:51.435Z,4.78
2023-11-24T04:35:51.348Z,4.80
2023-11-24T04:36:51.391Z,4.82
2023-11-24T04:37:51.342Z,4.66
2023-11-24T04:38:51.300Z,4.59
2023-11-24T04:39:51.337Z,4.44
2023-11-24T04:40:51.343Z,4.29
2023-11-24T04:41:51.320Z,4.18
2023-11-24T04:42:51.308Z,4.11
2023-11-24T04:43:51.266Z,4.05
2023-11-24T04:44:51.265Z,3.93
2023-11-24T04:45:51.288Z,3.78
2023-11-24T04:46:51.293Z,3.70
2023-11-24T04:47:51.254Z,3.60
2023-11-24T04:48:51.370Z,3.51
2023-11-24T04:49:51.242Z,3.51
2023-11-24T04:50:51.183Z,3.43
2023-11-24T04:51:51.174Z,3.43
2023-11-24T04:52:51.194Z,3.40
2023-11-24T04:53:51.171Z,3.35
2023-11-24T04:54:51.260Z,3.35
2023-11-24T04:55:51.109Z,3.33
2023-11-24T04:56:51.122Z,3.23
2023-11-24T04:57:51.419Z,3.21
2023-11-24T04:58:51.102Z,3.15
2023-11-24T04:59:51.075Z,3.13
2023-11-24T05:00:51.148Z,3.10
2023-11-24T05:01:51.095Z,3.13
2023-11-24T05:02:51.106Z,3.13
2023-11-24T05:03:51.178Z,3.15
2023-11-24T05:04:51.036Z,3.17
2023-11-24T05:05:51.031Z,3.24
2023-11-24T05:06:51.063Z,3.24
2023-11-24T05:07:50.998Z,3.28
2023-11-24T05:08:50.972Z,3.31
2023-11-24T05:09:51.068Z,3.32
2023-11-24T05:10:50.947Z,3.39
2023-11-24T05:11:50.963Z,3.36
2023-11-24T05:12:50.967Z,3.42
2023-11-24T05:13:50.959Z,3.47
2023-11-24T05:14:50.938Z,3.51
2023-11-24T05:15:50.994Z,3.52
2023-11-24T05:16:51.000Z,3.51
2023-11-24T05:17:50.939Z,3.61
2023-11-24T05:18:50.939Z,3.54
2023-11-24T05:19:50.870Z,3.60
2023-11-24T05:20:50.845Z,3.55
2023-11-24T05:21:50.937Z,3.58
2023-11-24T05:22:50.813Z,3.57
2023-11-24T05:23:50.855Z,3.55
2023-11-24T05:24:50.899Z,3.61
2023-11-24T05:25:50.818Z,3.60
2023-11-24T05:26:50.995Z,3.68
2023-11-24T05:27:50.816Z,3.69
2023-11-24T05:28:50.765Z,3.69
2023-11-24T05:29:50.741Z,3.66
2023-11-24T05:30:50.777Z,3.66
2023-11-24T05:31:50.785Z,3.70
2023-11-24T05:32:50.746Z,3.69
2023-11-24T05:33:50.732Z,3.68
2023-11-24T05:34:50.713Z,3.70
2023-11-24T05:35:50.687Z,3.70
2023-11-24T05:36:50.699Z,3.68
2023-11-24T05:37:50.686Z,3.69
2023-11-24T05:38:50.652Z,3.72
2023-11-24T05:39:50.642Z,3.75
2023-11-24T05:40:50.642Z,3.72
2023-11-24T05:41:50.619Z,3.75
2023-11-24T05:42:50.629Z,3.78
2023-11-24T05:43:50.692Z,3.75
2023-11-24T05:44:50.611Z,3.69
2023-11-24T05:45:50.679Z,3.78
2023-11-24T05:46:50.631Z,3.68
2023-11-24T05:47:50.669Z,3.70
2023-11-24T05:48:50.629Z,3.69
2023-11-24T05:49:50.516Z,3.68
2023-11-24T05:50:50.534Z,3.69
2023-11-24T05:51:50.574Z,3.73
2023-11-24T05:52:50.553Z,3.73
2023-11-24T05:53:50.489Z,3.72
2023-11-24T05:54:50.524Z,3.69
2023-11-24T05:55:50.508Z,3.70
2023-11-24T05:56:50.442Z,3.69
2023-11-24T05:57:50.517Z,3.73
2023-11-24T05:58:50.402Z,3.72
2023-11-24T05:59:50.401Z,3.72
2023-11-24T06:00:50.460Z,3.69
2023-11-24T06:01:50.425Z,3.72
2023-11-24T06:02:50.372Z,3.75
2023-11-24T06:03:50.551Z,3.76
2023-11-24T06:04:50.572Z,3.75
2023-11-24T06:05:50.335Z,3.73
2023-11-24T06:06:50.355Z,3.75
2023-11-24T06:07:53.322Z,3.75
2023-11-24T06:08:50.309Z,3.78
2023-11-24T06:09:50.318Z,3.79
2023-11-24T06:10:50.277Z,3.79
2023-11-24T06:11:50.260Z,3.83
2023-11-24T06:12:50.256Z,3.86
2023-11-24T06:13:50.295Z,3.86
2023-11-24T06:14:50.229Z,3.84
2023-11-24T06:15:50.247Z,3.87
2023-11-24T06:16:50.264Z,3.91
2023-11-24T06:17:50.268Z,3.97
2023-11-24T06:18:50.215Z,3.98
2023-11-24T06:19:50.221Z,3.94
2023-11-24T06:20:50.138Z,4.00
2023-11-24T06:21:50.220Z,3.94
2023-11-24T06:22:50.124Z,3.94
2023-11-24T06:23:50.127Z,3.93
2023-11-24T06:24:50.167Z,3.93
2023-11-24T06:25:50.125Z,3.98
2023-11-24T06:26:50.084Z,3.94
2023-11-24T06:27:50.092Z,3.94
2023-11-24T06:28:50.092Z,3.93
2023-11-24T06:29:50.095Z,3.98
2023-11-24T06:30:50.114Z,3.97
2023-11-24T06:31:50.064Z,3.96
2023-11-24T06:32:50.038Z,3.98
2023-11-24T06:33:50.112Z,3.97
2023-11-24T06:34:50.011Z,3.97
2023-11-24T06:35:50.004Z,4.00
2023-11-24T06:36:50.011Z,3.97
2023-11-24T06:37:49.988Z,3.97
2023-11-24T06:38:49.948Z,4.00
2023-11-24T06:39:49.971Z,4.00
2023-11-24T06:40:49.961Z,3.98
2023-11-24T06:41:49.944Z,3.98
2023-11-24T06:42:49.989Z,3.98
2023-11-24T06:43:49.897Z,3.98
2023-11-24T06:44:49.873Z,3.98
2023-11-24T06:45:49.914Z,4.05
2023-11-24T06:46:49.885Z,4.05
2023-11-24T06:47:50.004Z,4.02
2023-11-24T06:48:49.883Z,4.04
2023-11-24T06:49:49.839Z,4.00
2023-11-24T06:50:49.853Z,4.05
2023-11-24T06:51:49.855Z,4.05
2023-11-24T06:52:49.861Z,4.05
2023-11-24T06:53:49.805Z,4.08
2023-11-24T06:54:49.824Z,4.11
2023-11-24T06:55:49.760Z,4.11
2023-11-24T06:56:49.739Z,4.12
2023-11-24T06:57:49.764Z,4.09
2023-11-24T06:58:49.746Z,4.08
2023-11-24T06:59:49.726Z,4.12
2023-11-24T07:00:49.757Z,4.15
2023-11-24T07:01:49.791Z,4.15
2023-11-24T07:02:49.793Z,4.22
2023-11-24T07:03:49.778Z,4.12
2023-11-24T07:04:49.648Z,4.16
2023-11-24T07:05:49.656Z,4.16
2023-11-24T07:06:49.655Z,4.20
2023-11-24T07:07:49.630Z,4.22
2023-11-24T07:08:49.626Z,4.22
2023-11-24T07:09:49.752Z,4.18
2023-11-24T07:10:49.648Z,4.26
2023-11-24T07:11:49.610Z,4.26
2023-11-24T07:12:49.669Z,4.27
2023-11-24T07:13:49.672Z,4.26
2023-11-24T07:14:49.590Z,4.29
2023-11-24T07:15:49.671Z,4.24
2023-11-24T07:16:49.623Z,4.24
2023-11-24T07:17:49.553Z,4.26
2023-11-24T07:18:49.727Z,4.26
2023-11-24T07:19:49.569Z,4.24
2023-11-24T07:20:50.586Z,4.26
2023-11-24T07:21:49.540Z,4.23
2023-11-24T07:22:49.459Z,4.23
2023-11-24T07:23:49.457Z,4.24
2023-11-24T07:24:49.497Z,4.24
2023-11-24T07:25:49.496Z,4.26
2023-11-24T07:26:49.423Z,4.26
2023-11-24T07:27:49.851Z,4.22
2023-11-24T07:28:49.404Z,4.23
2023-11-24T07:29:49.381Z,4.24
2023-11-24T07:30:49.425Z,4.24
2023-11-24T07:31:49.397Z,4.20
2023-11-24T07:32:49.349Z,4.24
2023-11-24T07:33:49.374Z,4.18
2023-11-24T07:34:49.414Z,4.22
2023-11-24T07:35:49.330Z,4.23
2023-11-24T07:36:49.369Z,4.16
2023-11-24T07:37:49.317Z,4.23
2023-11-24T07:38:49.291Z,4.18
2023-11-24T07:39:49.374Z,4.18
2023-11-24T07:40:49.287Z,4.15
2023-11-24T07:41:49.388Z,4.16
2023-11-24T07:42:49.268Z,4.12
2023-11-24T07:43:49.255Z,4.16
2023-11-24T07:44:49.316Z,4.22
2023-11-24T07:45:49.430Z,4.18
2023-11-24T07:46:49.260Z,4.18
2023-11-24T07:47:49.228Z,4.16
2023-11-24T07:48:49.262Z,4.20
2023-11-24T07:49:49.221Z,4.16
2023-11-24T07:50:49.205Z,4.15
2023-11-24T07:51:49.178Z,4.14
2023-11-24T07:52:49.165Z,4.16
2023-11-24T07:53:49.141Z,4.16
2023-11-24T07:54:49.157Z,4.15
2023-11-24T07:55:49.139Z,4.14
2023-11-24T07:56:49.487Z,4.15
2023-11-24T07:57:49.174Z,4.14
2023-11-24T07:58:49.070Z,4.11
2023-11-24T07:59:49.081Z,4.14
2023-11-24T08:00:49.055Z,4.12
2023-11-24T08:01:49.135Z,4.11
2023-11-24T08:02:49.095Z,4.14
2023-11-24T08:03:49.106Z,4.09
2023-11-24T08:04:49.274Z,4.14
2023-11-24T08:05:49.078Z,4.16
2023-11-24T08:06:49.002Z,4.18
2023-11-24T08:07:48.978Z,4.15
2023-11-24T08:08:48.973Z,4.14
2023-11-24T08:09:49.029Z,4.16
2023-11-24T08:10:48.933Z,4.15
2023-11-24T08:11:48.964Z,4.12
2023-11-24T08:12:49.024Z,4.15
2023-11-24T08:13:48.928Z,4.16
2023-11-24T08:14:48.890Z,4.15
2023-11-24T08:15:48.971Z,4.15
2023-11-24T08:16:48.924Z,4.20
2023-11-24T08:17:49.352Z,4.16
2023-11-24T08:18:51.131Z,4.23
2023-11-24T08:19:48.886Z,4.15
2023-11-24T08:20:48.865Z,4.14
2023-11-24T08:21:49.349Z,4.23
2023-11-24T08:22:48.819Z,4.20
2023-11-24T08:23:48.802Z,4.24
2023-11-24T08:24:48.809Z,4.24
2023-11-24T08:25:48.774Z,4.22
2023-11-24T08:26:48.803Z,4.23
2023-11-24T08:27:48.836Z,4.22
2023-11-24T08:28:48.744Z,4.27
2023-11-24T08:29:48.766Z,4.29
2023-11-24T08:30:48.771Z,4.29
2023-11-24T08:31:49.536Z,4.32
2023-11-24T08:32:48.810Z,4.32
2023-11-24T08:33:48.773Z,4.33
2023-11-24T08:34:50.569Z,4.33
2023-11-24T08:35:49.497Z,4.27
2023-11-24T08:36:48.729Z,4.24
2023-11-24T08:37:48.964Z,4.29
2023-11-24T08:38:49.042Z,4.30
2023-11-24T08:39:48.683Z,4.27
2023-11-24T08:40:48.620Z,4.29
2023-11-24T08:41:48.616Z,4.24
2023-11-24T08:42:49.464Z,4.29
2023-11-24T08:43:48.631Z,4.23
2023-11-24T08:44:48.598Z,4.24
2023-11-24T08:45:48.806Z,4.24
2023-11-24T08:46:48.686Z,4.27
2023-11-24T08:47:48.632Z,4.27
2023-11-24T08:48:49.584Z,4.30
2023-11-24T08:49:48.516Z,4.30
2023-11-24T08:50:48.520Z,4.27
2023-11-24T08:51:48.895Z,4.24
2023-11-24T08:52:49.013Z,4.30
2023-11-24T08:53:48.491Z,4.29
2023-11-24T08:54:48.487Z,4.26
2023-11-24T08:55:48.469Z,4.29
2023-11-24T08:56:48.473Z,4.23
2023-11-24T08:57:48.512Z,4.29
2023-11-24T08:58:48.438Z,4.29
2023-11-24T08:59:48.445Z,4.24
2023-11-24T09:00:48.495Z,4.33
2023-11-24T09:01:48.452Z,4.29
2023-11-24T09:02:48.455Z,4.29
2023-11-24T09:03:48.473Z,4.32
2023-11-24T09:04:48.423Z,4.30
2023-11-24T09:05:48.385Z,4.33
2023-11-24T09:06:48.405Z,4.33
2023-11-24T09:07:48.336Z,4.34
2023-11-24T09:08:48.306Z,4.33
2023-11-24T09:09:48.345Z,4.36
2023-11-24T09:10:48.310Z,4.37
2023-11-24T09:11:48.289Z,4.42
2023-11-24T09:12:48.311Z,4.36
2023-11-24T09:13:49.776Z,4.42
2023-11-24T09:14:48.325Z,4.41
2023-11-24T09:15:48.316Z,4.40
2023-11-24T09:16:48.295Z,4.42
2023-11-24T09:17:48.254Z,4.41
2023-11-24T09:18:48.248Z,4.37
2023-11-24T09:19:48.218Z,4.37
2023-11-24T09:20:48.214Z,4.37
2023-11-24T09:21:48.226Z,4.34
2023-11-24T09:22:48.170Z,4.34
2023-11-24T09:23:48.172Z,4.40
2023-11-24T09:24:49.465Z,4.41
2023-11-24T09:25:48.168Z,4.37
2023-11-24T09:26:48.175Z,4.34
2023-11-24T09:27:48.179Z,4.36
2023-11-24T09:28:48.145Z,4.34
2023-11-24T09:29:48.390Z,4.41
2023-11-24T09:30:48.164Z,4.36
2023-11-24T09:31:48.074Z,4.45
2023-11-24T09:32:48.209Z,4.47
2023-11-24T09:33:48.088Z,4.48
2023-11-24T09:34:48.081Z,4.47
2023-11-24T09:35:48.035Z,4.51
2023-11-24T09:36:48.064Z,4.59
2023-11-24T09:37:48.019Z,4.55
2023-11-24T09:38:48.034Z,4.54
2023-11-24T09:39:48.051Z,4.55
2023-11-24T09:40:47.979Z,4.54
2023-11-24T09:41:47.963Z,4.55
2023-11-24T09:42:47.990Z,4.54
2023-11-24T09:43:47.962Z,4.52
2023-11-24T09:44:47.969Z,4.50
2023-11-24T09:45:47.983Z,4.51
2023-11-24T09:46:51.971Z,4.51
2023-11-24T09:47:48.016Z,4.54
2023-11-24T09:48:47.949Z,4.55
2023-11-24T09:49:47.889Z,4.52
2023-11-24T09:50:47.900Z,4.50
2023-11-24T09:51:47.922Z,4.48
2023-11-24T09:52:47.877Z,4.48
2023-11-24T09:53:47.865Z,4.45
2023-11-24T09:54:47.858Z,4.45
2023-11-24T09:55:47.848Z,4.41
2023-11-24T09:56:47.823Z,4.45
2023-11-24T09:57:47.811Z,4.45
2023-11-24T09:58:47.796Z,4.42
2023-11-24T09:59:47.814Z,4.42
2023-11-24T10:00:47.859Z,4.41
2023-11-24T10:01:47.788Z,4.50
2023-11-24T10:02:47.833Z,4.48
2023-11-24T10:03:47.855Z,4.52
2023-11-24T10:04:47.763Z,4.48
2023-11-24T10:05:47.742Z,4.54
2023-11-24T10:06:47.761Z,4.51
2023-11-24T10:07:47.717Z,4.51
2023-11-24T10:08:47.694Z,4.50
2023-11-24T10:09:47.708Z,4.54
2023-11-24T10:10:47.711Z,4.54
2023-11-24T10:11:47.673Z,4.59
2023-11-24T10:12:47.695Z,4.60
2023-11-24T10:13:49.358Z,4.63
2023-11-24T10:14:47.639Z,4.62
2023-11-24T10:15:47.677Z,4.62
2023-11-24T10:16:47.642Z,4.65
2023-11-24T10:17:47.612Z,4.63
2023-11-24T10:18:47.635Z,4.60
2023-11-24T10:19:47.610Z,4.60
2023-11-24T10:20:47.572Z,4.55
2023-11-24T10:21:47.622Z,4.54
2023-11-24T10:22:47.559Z,4.58
2023-11-24T10:23:47.534Z,4.65
2023-11-24T10:24:47.564Z,4.69
2023-11-24T10:25:47.502Z,4.67
2023-11-24T10:26:47.517Z,4.73
2023-11-24T10:27:47.528Z,4.80
2023-11-24T10:28:47.499Z,4.80
2023-11-24T10:29:47.494Z,4.75
2023-11-24T10:30:47.494Z,4.80
2023-11-24T10:31:47.443Z,4.85
2023-11-24T10:32:47.493Z,4.85
2023-11-24T10:33:47.575Z,4.84
2023-11-24T10:34:47.552Z,4.75
2023-11-24T10:35:47.412Z,4.70
2023-11-24T10:36:47.471Z,4.70
2023-11-24T10:37:47.392Z,4.73
2023-11-24T10:38:47.522Z,4.78
2023-11-24T10:39:47.407Z,4.78
2023-11-24T10:40:47.379Z,4.82
2023-11-24T10:41:47.345Z,4.80
2023-11-24T10:42:47.383Z,4.77
2023-11-24T10:43:47.328Z,4.77
2023-11-24T10:44:47.309Z,4.85
2023-11-24T10:45:47.344Z,4.84
2023-11-24T10:46:47.462Z,4.84
2023-11-24T10:47:47.299Z,4.85
2023-11-24T10:48:47.296Z,4.85
2023-11-24T10:49:47.278Z,4.92
2023-11-24T10:50:47.260Z,4.99
2023-11-24T10:51:47.256Z,4.97
2023-11-24T10:52:47.260Z,4.97
2023-11-24T10:53:47.228Z,4.97
2023-11-24T10:54:47.308Z,4.99
2023-11-24T10:55:47.203Z,5.02
2023-11-24T10:56:47.183Z,5.02
2023-11-24T10:57:47.218Z,4.99
2023-11-24T10:58:47.182Z,5.04
2023-11-24T10:59:47.153Z,5.04
2023-11-24T11:00:47.364Z,5.06
2023-11-24T11:01:47.294Z,5.06
2023-11-24T11:02:47.223Z,5.06
2023-11-24T11:03:47.142Z,5.02
2023-11-24T11:04:47.114Z,5.00
2023-11-24T11:05:47.182Z,4.97
2023-11-24T11:06:47.141Z,4.99
2023-11-24T11:07:47.094Z,5.00
2023-11-24T11:08:47.080Z,5.02
2023-11-24T11:09:47.068Z,5.00
2023-11-24T11:10:47.356Z,4.97
2023-11-24T11:11:47.040Z,4.97
2023-11-24T11:12:47.034Z,5.02
2023-11-24T11:13:47.039Z,4.97
2023-11-24T11:14:47.025Z,5.04
2023-11-24T11:15:47.049Z,4.99
2023-11-24T11:16:47.042Z,4.94
2023-11-24T11:17:47.064Z,4.94
2023-11-24T11:18:47.023Z,4.99
2023-11-24T11:19:46.957Z,5.00
2023-11-24T11:20:46.950Z,5.06
2023-11-24T11:21:46.993Z,5.04
2023-11-24T11:22:46.931Z,5.02
2023-11-24T11:23:46.902Z,4.99
2023-11-24T11:24:46.973Z,5.06
2023-11-24T11:25:46.882Z,5.09
2023-11-24T11:26:46.988Z,5.07
2023-11-24T11:27:46.907Z,5.04
2023-11-24T11:28:46.871Z,5.03
2023-11-24T11:29:46.835Z,5.06
2023-11-24T11:30:46.918Z,5.03
2023-11-24T11:31:46.888Z,5.06
2023-11-24T11:32:46.857Z,5.06
2023-11-24T11:33:46.834Z,5.12
2023-11-24T11:34:46.804Z,5.04
2023-11-24T11:35:46.814Z,5.04
2023-11-24T11:36:46.771Z,5.04
2023-11-24T11:37:46.771Z,5.07
2023-11-24T11:38:46.873Z,5.03
2023-11-24T11:39:46.760Z,5.04
2023-11-24T11:40:46.748Z,5.03
2023-11-24T11:41:46.744Z,5.02
2023-11-24T11:42:46.778Z,5.03
2023-11-24T11:43:46.721Z,5.04
2023-11-24T11:44:46.681Z,5.09
2023-11-24T11:45:46.748Z,5.07
2023-11-24T11:46:46.679Z,5.09
2023-11-24T11:47:46.740Z,5.13
2023-11-24T11:48:46.667Z,5.17
2023-11-24T11:49:46.662Z,5.18
2023-11-24T11:50:46.641Z,5.22
2023-11-24T11:51:46.734Z,5.21
2023-11-24T11:52:46.706Z,5.22
2023-11-24T11:53:46.592Z,5.21
2023-11-24T11:54:46.774Z,5.25
2023-11-24T11:55:47.409Z,5.27
2023-11-24T11:56:46.572Z,5.30
2023-11-24T11:57:46.637Z,5.33
2023-11-24T11:58:46.569Z,5.36
2023-11-24T11:59:46.540Z,5.43
2023-11-24T12:00:46.575Z,5.35
2023-11-24T12:01:46.721Z,5.33
2023-11-24T12:02:46.603Z,5.27
2023-11-24T12:03:46.563Z,5.22
2023-11-24T12:04:46.467Z,5.21
2023-11-24T12:05:46.509Z,5.21
2023-11-24T12:06:46.531Z,5.27
2023-11-24T12:07:46.455Z,5.35
2023-11-24T12:08:46.427Z,5.35
2023-11-24T12:09:46.470Z,5.40
2023-11-24T12:10:46.445Z,5.43
2023-11-24T12:11:46.391Z,5.45
2023-11-24T12:12:46.432Z,5.48
2023-11-24T12:13:46.379Z,5.49
2023-11-24T12:14:46.381Z,5.43
2023-11-24T12:15:46.627Z,5.42
2023-11-24T12:16:46.440Z,5.38
2023-11-24T12:17:46.460Z,5.36
2023-11-24T12:18:46.343Z,5.24
2023-11-24T12:19:46.330Z,5.22
2023-11-24T12:20:46.311Z,5.27
2023-11-24T12:21:46.369Z,5.24
2023-11-24T12:22:46.298Z,5.28
2023-11-24T12:23:46.259Z,5.27
2023-11-24T12:24:46.281Z,5.28
2023-11-24T12:25:46.258Z,5.22
2023-11-24T12:26:46.326Z,5.24
2023-11-24T12:27:46.322Z,5.18
2023-11-24T12:28:46.215Z,5.24
2023-11-24T12:29:46.228Z,5.24
2023-11-24T12:30:46.238Z,5.18
2023-11-24T12:31:46.250Z,5.21
2023-11-24T12:32:46.401Z,5.27
2023-11-24T12:33:46.256Z,5.24
2023-11-24T12:34:46.175Z,5.33
2023-11-24T12:35:46.131Z,5.31
2023-11-24T12:36:46.209Z,5.36
2023-11-24T12:37:46.140Z,5.36
2023-11-24T12:38:46.173Z,5.38
2023-11-24T12:39:46.125Z,5.43
2023-11-24T12:40:46.127Z,5.49
2023-11-24T12:41:46.161Z,5.54
2023-11-24T12:42:46.144Z,5.56
2023-11-24T12:43:46.101Z,5.60
2023-11-24T12:44:46.057Z,5.57
2023-11-24T12:45:46.128Z,5.60
2023-11-24T12:46:46.114Z,5.57
2023-11-24T12:47:46.097Z,5.53
2023-11-24T12:48:46.047Z,5.53
2023-11-24T12:49:46.023Z,5.48
2023-11-24T12:50:46.003Z,5.49
2023-11-24T12:51:45.994Z,5.53
2023-11-24T12:52:46.183Z,5.46
2023-11-24T12:53:45.976Z,5.40
2023-11-24T12:54:45.970Z,5.40
2023-11-24T12:55:45.946Z,5.40
2023-11-24T12:56:45.953Z,5.42
2023-11-24T12:57:45.979Z,5.46
2023-11-24T12:58:45.913Z,5.46
2023-11-24T12:59:45.914Z,5.46
2023-11-24T13:00:45.959Z,5.46
2023-11-24T13:01:45.916Z,5.48
2023-11-24T13:02:46.547Z,5.45
2023-11-24T13:03:45.983Z,5.39
2023-11-24T13:04:45.942Z,5.38
2023-11-24T13:05:45.909Z,5.36
2023-11-24T13:06:45.870Z,5.33
2023-11-24T13:07:45.887Z,5.38
2023-11-24T13:08:45.833Z,5.46
2023-11-24T13:09:45.870Z,5.39
2023-11-24T13:10:45.833Z,5.38
2023-11-24T13:11:45.799Z,5.42
2023-11-24T13:12:45.914Z,5.40
2023-11-24T13:13:45.744Z,5.40
2023-11-24T13:14:45.746Z,5.39
2023-11-24T13:15:45.849Z,5.39
2023-11-24T13:16:45.814Z,5.36
2023-11-24T13:17:45.839Z,5.38
2023-11-24T13:18:45.721Z,5.38